sensor_id;sensor_type;location;lat;lon;timestamp;P1;durP1;ratioP1;P2;durP2;ratioP2
9304;SDS011;4690;52.422;13.486;2023-04-23T00:06:24;9.10;;;8.20;;
9304;SDS011;4690;52.422;13.486;2023-04-23T00:08:54;8.63;;;7.83;;
9304;SDS011;4690;52.422;13.486;2023-04-23T00:11:24;8.57;;;7.77;;
9304;SDS011;4690;52.422;13.486;2023-04-23T00:13:51;8.77;;;7.97;;
9304;SDS011;4690;52.422;13.486;2023-04-23T00:16:18;10.03;;;8.23;;
9304;SDS011;4690;52.422;13.486;2023-04-23T00:18:45;8.97;;;8.03;;
9304;SDS011;4690;52.422;13.486;2023-04-23T00:21:11;8.83;;;7.83;;
9304;SDS011;4690;52.422;13.486;2023-04-23T00:23:38;9.07;;;8.17;;
9304;SDS011;4690;52.422;13.486;2023-04-23T00:26:04;9.33;;;8.37;;
9304;SDS011;4690;52.422;13.486;2023-04-23T00:28:30;10.50;;;8.33;;
9304;SDS011;4690;52.422;13.486;2023-04-23T00:30:56;10.60;;;8.73;;
9304;SDS011;4690;52.422;13.486;2023-04-23T00:33:22;10.60;;;8.40;;
9304;SDS011;4690;52.422;13.486;2023-04-23T00:35:47;8.80;;;8.00;;
9304;SDS011;4690;52.422;13.486;2023-04-23T00:38:13;9.77;;;8.80;;
9304;SDS011;4690;52.422;13.486;2023-04-23T00:40:39;8.83;;;8.00;;
9304;SDS011;4690;52.422;13.486;2023-04-23T00:43:05;9.17;;;8.23;;
9304;SDS011;4690;52.422;13.486;2023-04-23T00:45:31;8.80;;;7.90;;
9304;SDS011;4690;52.422;13.486;2023-04-23T00:47:58;9.27;;;8.37;;
9304;SDS011;4690;52.422;13.486;2023-04-23T00:50:24;9.40;;;8.23;;
9304;SDS011;4690;52.422;13.486;2023-04-23T00:52:50;11.57;;;8.80;;
9304;SDS011;4690;52.422;13.486;2023-04-23T00:55:16;10.20;;;8.53;;
9304;SDS011;4690;52.422;13.486;2023-04-23T00:57:45;11.23;;;8.97;;
9304;SDS011;4690;52.422;13.486;2023-04-23T01:00:12;12.90;;;9.13;;
9304;SDS011;4690;52.422;13.486;2023-04-23T01:02:38;9.53;;;8.57;;
9304;SDS011;4690;52.422;13.486;2023-04-23T01:05:07;9.70;;;8.53;;
9304;SDS011;4690;52.422;13.486;2023-04-23T01:07:35;9.57;;;8.40;;
9304;SDS011;4690;52.422;13.486;2023-04-23T01:10:02;9.13;;;8.20;;
9304;SDS011;4690;52.422;13.486;2023-04-23T01:12:29;9.67;;;8.67;;
9304;SDS011;4690;52.422;13.486;2023-04-23T01:14:55;10.07;;;8.53;;
9304;SDS011;4690;52.422;13.486;2023-04-23T01:17:22;9.27;;;8.30;;
9304;SDS011;4690;52.422;13.486;2023-04-23T01:19:48;10.20;;;9.00;;
9304;SDS011;4690;52.422;13.486;2023-04-23T01:22:14;9.27;;;8.33;;
9304;SDS011;4690;52.422;13.486;2023-04-23T01:24:41;9.50;;;8.60;;
9304;SDS011;4690;52.422;13.486;2023-04-23T01:27:10;10.87;;;8.53;;
9304;SDS011;4690;52.422;13.486;2023-04-23T01:29:36;9.87;;;8.60;;
9304;SDS011;4690;52.422;13.486;2023-04-23T01:32:03;9.93;;;8.93;;
9304;SDS011;4690;52.422;13.486;2023-04-23T01:34:31;11.87;;;8.83;;
9304;SDS011;4690;52.422;13.486;2023-04-23T01:36:58;10.20;;;9.13;;
9304;SDS011;4690;52.422;13.486;2023-04-23T01:39:26;9.00;;;8.20;;
9304;SDS011;4690;52.422;13.486;2023-04-23T01:41:52;10.37;;;9.07;;
9304;SDS011;4690;52.422;13.486;2023-04-23T01:44:18;10.37;;;8.70;;
9304;SDS011;4690;52.422;13.486;2023-04-23T01:46:44;9.37;;;8.40;;
9304;SDS011;4690;52.422;13.486;2023-04-23T01:49:10;9.33;;;8.40;;
9304;SDS011;4690;52.422;13.486;2023-04-23T01:51:37;8.73;;;7.83;;
9304;SDS011;4690;52.422;13.486;2023-04-23T01:54:02;10.17;;;8.40;;
9304;SDS011;4690;52.422;13.486;2023-04-23T01:56:28;8.70;;;7.90;;
9304;SDS011;4690;52.422;13.486;2023-04-23T01:58:54;8.47;;;7.67;;
9304;SDS011;4690;52.422;13.486;2023-04-23T02:01:21;9.37;;;8.27;;
9304;SDS011;4690;52.422;13.486;2023-04-23T02:03:49;8.40;;;7.60;;
9304;SDS011;4690;52.422;13.486;2023-04-23T02:06:15;10.27;;;8.43;;
9304;SDS011;4690;52.422;13.486;2023-04-23T02:08:41;9.43;;;8.43;;
9304;SDS011;4690;52.422;13.486;2023-04-23T02:11:07;8.93;;;8.13;;
9304;SDS011;4690;52.422;13.486;2023-04-23T02:13:33;10.70;;;8.40;;
9304;SDS011;4690;52.422;13.486;2023-04-23T02:15:59;9.93;;;8.23;;
9304;SDS011;4690;52.422;13.486;2023-04-23T02:18:27;9.40;;;8.50;;
9304;SDS011;4690;52.422;13.486;2023-04-23T02:20:53;10.10;;;9.10;;
9304;SDS011;4690;52.422;13.486;2023-04-23T02:23:19;9.30;;;8.40;;
9304;SDS011;4690;52.422;13.486;2023-04-23T02:25:45;10.50;;;9.50;;
9304;SDS011;4690;52.422;13.486;2023-04-23T02:28:11;12.07;;;10.80;;
9304;SDS011;4690;52.422;13.486;2023-04-23T02:30:38;10.97;;;9.97;;
9304;SDS011;4690;52.422;13.486;2023-04-23T02:33:10;11.77;;;10.57;;
9304;SDS011;4690;52.422;13.486;2023-04-23T02:35:36;13.67;;;10.70;;
9304;SDS011;4690;52.422;13.486;2023-04-23T02:38:02;15.17;;;11.70;;
9304;SDS011;4690;52.422;13.486;2023-04-23T02:40:28;13.47;;;11.80;;
9304;SDS011;4690;52.422;13.486;2023-04-23T02:42:55;12.47;;;11.27;;
9304;SDS011;4690;52.422;13.486;2023-04-23T02:45:20;15.20;;;13.07;;
9304;SDS011;4690;52.422;13.486;2023-04-23T02:47:46;15.23;;;13.70;;
9304;SDS011;4690;52.422;13.486;2023-04-23T02:50:12;14.73;;;13.43;;
9304;SDS011;4690;52.422;13.486;2023-04-23T02:52:38;15.60;;;14.20;;
9304;SDS011;4690;52.422;13.486;2023-04-23T02:55:04;14.57;;;13.27;;
9304;SDS011;4690;52.422;13.486;2023-04-23T02:57:31;14.57;;;13.27;;
9304;SDS011;4690;52.422;13.486;2023-04-23T02:59:57;15.37;;;13.87;;
9304;SDS011;4690;52.422;13.486;2023-04-23T03:02:22;16.27;;;14.67;;
9304;SDS011;4690;52.422;13.486;2023-04-23T03:04:48;16.57;;;14.83;;
9304;SDS011;4690;52.422;13.486;2023-04-23T03:07:15;16.43;;;14.83;;
9304;SDS011;4690;52.422;13.486;2023-04-23T03:09:41;17.43;;;15.63;;
9304;SDS011;4690;52.422;13.486;2023-04-23T03:12:07;16.67;;;14.90;;
9304;SDS011;4690;52.422;13.486;2023-04-23T03:14:33;17.50;;;15.70;;
9304;SDS011;4690;52.422;13.486;2023-04-23T03:16:59;16.73;;;15.13;;
9304;SDS011;4690;52.422;13.486;2023-04-23T03:19:25;17.93;;;16.23;;
9304;SDS011;4690;52.422;13.486;2023-04-23T03:21:51;21.93;;;18.70;;
9304;SDS011;4690;52.422;13.486;2023-04-23T03:24:17;19.97;;;17.90;;
9304;SDS011;4690;52.422;13.486;2023-04-23T03:26:43;19.93;;;17.80;;
9304;SDS011;4690;52.422;13.486;2023-04-23T03:29:09;18.20;;;16.60;;
9304;SDS011;4690;52.422;13.486;2023-04-23T03:31:35;20.57;;;18.47;;
9304;SDS011;4690;52.422;13.486;2023-04-23T03:34:00;20.90;;;19.00;;
9304;SDS011;4690;52.422;13.486;2023-04-23T03:36:27;19.53;;;17.57;;
9304;SDS011;4690;52.422;13.486;2023-04-23T03:38:53;18.97;;;17.20;;
9304;SDS011;4690;52.422;13.486;2023-04-23T03:41:19;20.07;;;18.17;;
9304;SDS011;4690;52.422;13.486;2023-04-23T03:43:45;18.90;;;17.07;;
9304;SDS011;4690;52.422;13.486;2023-04-23T03:46:10;20.07;;;17.93;;
9304;SDS011;4690;52.422;13.486;2023-04-23T03:48:36;17.43;;;15.87;;
9304;SDS011;4690;52.422;13.486;2023-04-23T03:51:02;16.00;;;14.53;;
9304;SDS011;4690;52.422;13.486;2023-04-23T03:53:28;16.00;;;14.60;;
9304;SDS011;4690;52.422;13.486;2023-04-23T03:55:54;17.00;;;15.40;;
9304;SDS011;4690;52.422;13.486;2023-04-23T03:58:19;15.13;;;13.73;;
9304;SDS011;4690;52.422;13.486;2023-04-23T04:00:45;17.37;;;15.57;;
9304;SDS011;4690;52.422;13.486;2023-04-23T04:03:11;16.17;;;14.47;;
9304;SDS011;4690;52.422;13.486;2023-04-23T04:05:36;18.33;;;16.40;;
9304;SDS011;4690;52.422;13.486;2023-04-23T04:08:02;19.83;;;17.83;;
9304;SDS011;4690;52.422;13.486;2023-04-23T04:10:29;20.07;;;18.00;;
9304;SDS011;4690;52.422;13.486;2023-04-23T04:12:55;20.27;;;18.17;;
9304;SDS011;4690;52.422;13.486;2023-04-23T04:15:20;19.97;;;18.27;;
9304;SDS011;4690;52.422;13.486;2023-04-23T04:17:46;19.50;;;17.70;;
9304;SDS011;4690;52.422;13.486;2023-04-23T04:20:12;18.97;;;17.17;;
9304;SDS011;4690;52.422;13.486;2023-04-23T04:22:38;18.17;;;16.47;;
9304;SDS011;4690;52.422;13.486;2023-04-23T04:25:04;17.60;;;15.97;;
9304;SDS011;4690;52.422;13.486;2023-04-23T04:27:31;19.27;;;17.47;;
9304;SDS011;4690;52.422;13.486;2023-04-23T04:29:59;16.80;;;15.30;;
9304;SDS011;4690;52.422;13.486;2023-04-23T04:32:26;18.00;;;16.30;;
9304;SDS011;4690;52.422;13.486;2023-04-23T04:34:52;19.63;;;17.67;;
9304;SDS011;4690;52.422;13.486;2023-04-23T04:37:18;17.70;;;16.03;;
9304;SDS011;4690;52.422;13.486;2023-04-23T04:39:45;17.80;;;16.30;;
9304;SDS011;4690;52.422;13.486;2023-04-23T04:42:11;19.83;;;17.83;;
9304;SDS011;4690;52.422;13.486;2023-04-23T04:44:37;17.63;;;15.93;;
9304;SDS011;4690;52.422;13.486;2023-04-23T04:47:03;19.47;;;17.50;;
9304;SDS011;4690;52.422;13.486;2023-04-23T04:49:31;16.17;;;14.77;;
9304;SDS011;4690;52.422;13.486;2023-04-23T04:51:57;17.37;;;15.70;;
9304;SDS011;4690;52.422;13.486;2023-04-23T04:54:23;17.03;;;15.43;;
9304;SDS011;4690;52.422;13.486;2023-04-23T04:56:49;19.10;;;16.00;;
9304;SDS011;4690;52.422;13.486;2023-04-23T04:59:14;16.57;;;15.10;;
9304;SDS011;4690;52.422;13.486;2023-04-23T05:01:40;16.80;;;15.27;;
9304;SDS011;4690;52.422;13.486;2023-04-23T05:04:06;16.57;;;14.97;;
9304;SDS011;4690;52.422;13.486;2023-04-23T05:06:32;16.20;;;14.60;;
9304;SDS011;4690;52.422;13.486;2023-04-23T05:08:58;15.73;;;14.17;;
9304;SDS011;4690;52.422;13.486;2023-04-23T05:11:24;15.47;;;14.07;;
9304;SDS011;4690;52.422;13.486;2023-04-23T05:13:50;17.30;;;15.70;;
9304;SDS011;4690;52.422;13.486;2023-04-23T05:16:16;15.43;;;13.93;;
9304;SDS011;4690;52.422;13.486;2023-04-23T05:18:42;15.70;;;14.30;;
9304;SDS011;4690;52.422;13.486;2023-04-23T05:21:08;16.20;;;14.70;;
9304;SDS011;4690;52.422;13.486;2023-04-23T05:23:34;15.47;;;14.07;;
9304;SDS011;4690;52.422;13.486;2023-04-23T05:26:00;15.43;;;13.83;;
9304;SDS011;4690;52.422;13.486;2023-04-23T05:28:29;16.33;;;14.80;;
9304;SDS011;4690;52.422;13.486;2023-04-23T05:30:55;16.87;;;15.30;;
9304;SDS011;4690;52.422;13.486;2023-04-23T05:33:22;17.17;;;15.17;;
9304;SDS011;4690;52.422;13.486;2023-04-23T05:35:50;17.20;;;15.47;;
9304;SDS011;4690;52.422;13.486;2023-04-23T05:38:15;15.93;;;14.20;;
9304;SDS011;4690;52.422;13.486;2023-04-23T05:40:41;16.17;;;14.57;;
9304;SDS011;4690;52.422;13.486;2023-04-23T05:43:07;17.20;;;15.40;;
9304;SDS011;4690;52.422;13.486;2023-04-23T05:45:33;15.73;;;13.90;;
9304;SDS011;4690;52.422;13.486;2023-04-23T05:47:59;17.13;;;15.07;;
9304;SDS011;4690;52.422;13.486;2023-04-23T05:50:25;16.00;;;14.50;;
9304;SDS011;4690;52.422;13.486;2023-04-23T05:52:51;17.07;;;15.37;;
9304;SDS011;4690;52.422;13.486;2023-04-23T05:55:17;14.80;;;13.50;;
9304;SDS011;4690;52.422;13.486;2023-04-23T05:57:44;14.53;;;13.23;;
9304;SDS011;4690;52.422;13.486;2023-04-23T06:00:11;15.30;;;13.87;;
9304;SDS011;4690;52.422;13.486;2023-04-23T06:02:37;14.37;;;13.03;;
9304;SDS011;4690;52.422;13.486;2023-04-23T06:05:04;16.43;;;14.07;;
9304;SDS011;4690;52.422;13.486;2023-04-23T06:07:31;17.13;;;15.30;;
9304;SDS011;4690;52.422;13.486;2023-04-23T06:09:58;15.30;;;13.90;;
9304;SDS011;4690;52.422;13.486;2023-04-23T06:12:24;15.27;;;13.77;;
9304;SDS011;4690;52.422;13.486;2023-04-23T06:14:54;15.03;;;13.43;;
9304;SDS011;4690;52.422;13.486;2023-04-23T06:17:19;15.83;;;14.30;;
9304;SDS011;4690;52.422;13.486;2023-04-23T06:19:45;14.33;;;13.03;;
9304;SDS011;4690;52.422;13.486;2023-04-23T06:22:11;16.23;;;14.47;;
9304;SDS011;4690;52.422;13.486;2023-04-23T06:24:36;16.03;;;14.53;;
9304;SDS011;4690;52.422;13.486;2023-04-23T06:27:02;16.27;;;14.63;;
9304;SDS011;4690;52.422;13.486;2023-04-23T06:29:28;14.63;;;13.33;;
9304;SDS011;4690;52.422;13.486;2023-04-23T06:31:54;14.93;;;13.63;;
9304;SDS011;4690;52.422;13.486;2023-04-23T06:34:21;15.57;;;14.10;;
9304;SDS011;4690;52.422;13.486;2023-04-23T06:36:47;14.17;;;12.67;;
9304;SDS011;4690;52.422;13.486;2023-04-23T06:39:14;14.43;;;12.23;;
9304;SDS011;4690;52.422;13.486;2023-04-23T06:41:40;14.37;;;12.97;;
9304;SDS011;4690;52.422;13.486;2023-04-23T06:44:06;12.53;;;11.43;;
9304;SDS011;4690;52.422;13.486;2023-04-23T06:46:31;15.33;;;11.50;;
9304;SDS011;4690;52.422;13.486;2023-04-23T06:48:57;12.80;;;11.47;;
9304;SDS011;4690;52.422;13.486;2023-04-23T06:51:26;13.17;;;11.87;;
9304;SDS011;4690;52.422;13.486;2023-04-23T06:53:52;12.37;;;11.07;;
9304;SDS011;4690;52.422;13.486;2023-04-23T06:56:19;12.57;;;11.27;;
9304;SDS011;4690;52.422;13.486;2023-04-23T06:58:45;10.67;;;9.60;;
9304;SDS011;4690;52.422;13.486;2023-04-23T07:01:11;10.60;;;9.53;;
9304;SDS011;4690;52.422;13.486;2023-04-23T07:03:37;12.77;;;10.30;;
9304;SDS011;4690;52.422;13.486;2023-04-23T07:06:03;10.00;;;9.10;;
9304;SDS011;4690;52.422;13.486;2023-04-23T07:08:29;10.90;;;9.97;;
9304;SDS011;4690;52.422;13.486;2023-04-23T07:10:56;11.27;;;10.23;;
9304;SDS011;4690;52.422;13.486;2023-04-23T07:13:21;10.77;;;9.57;;
9304;SDS011;4690;52.422;13.486;2023-04-23T07:15:48;10.73;;;9.63;;
9304;SDS011;4690;52.422;13.486;2023-04-23T07:18:14;11.90;;;10.70;;
9304;SDS011;4690;52.422;13.486;2023-04-23T07:20:40;10.80;;;9.80;;
9304;SDS011;4690;52.422;13.486;2023-04-23T07:23:06;11.63;;;10.23;;
9304;SDS011;4690;52.422;13.486;2023-04-23T07:25:32;10.73;;;9.67;;
9304;SDS011;4690;52.422;13.486;2023-04-23T07:27:57;10.53;;;9.40;;
9304;SDS011;4690;52.422;13.486;2023-04-23T07:30:24;10.00;;;9.00;;
9304;SDS011;4690;52.422;13.486;2023-04-23T07:32:52;11.53;;;8.83;;
9304;SDS011;4690;52.422;13.486;2023-04-23T07:35:19;8.93;;;8.13;;
9304;SDS011;4690;52.422;13.486;2023-04-23T07:37:45;9.13;;;8.33;;
9304;SDS011;4690;52.422;13.486;2023-04-23T07:40:11;10.10;;;7.90;;
9304;SDS011;4690;52.422;13.486;2023-04-23T07:42:37;7.83;;;7.13;;
9304;SDS011;4690;52.422;13.486;2023-04-23T07:45:03;8.07;;;7.37;;
9304;SDS011;4690;52.422;13.486;2023-04-23T07:47:30;8.87;;;8.07;;
9304;SDS011;4690;52.422;13.486;2023-04-23T07:49:56;8.90;;;8.00;;
9304;SDS011;4690;52.422;13.486;2023-04-23T07:52:21;10.17;;;8.43;;
9304;SDS011;4690;52.422;13.486;2023-04-23T07:54:47;9.50;;;8.23;;
9304;SDS011;4690;52.422;13.486;2023-04-23T07:57:13;9.80;;;8.80;;
9304;SDS011;4690;52.422;13.486;2023-04-23T07:59:38;11.13;;;8.87;;
9304;SDS011;4690;52.422;13.486;2023-04-23T08:02:04;9.80;;;8.90;;
9304;SDS011;4690;52.422;13.486;2023-04-23T08:04:30;10.00;;;9.10;;
9304;SDS011;4690;52.422;13.486;2023-04-23T08:06:56;10.07;;;9.17;;
9304;SDS011;4690;52.422;13.486;2023-04-23T08:09:22;10.50;;;9.33;;
9304;SDS011;4690;52.422;13.486;2023-04-23T08:11:49;11.47;;;10.13;;
9304;SDS011;4690;52.422;13.486;2023-04-23T08:14:14;9.37;;;8.57;;
9304;SDS011;4690;52.422;13.486;2023-04-23T08:16:41;10.10;;;9.10;;
9304;SDS011;4690;52.422;13.486;2023-04-23T08:19:10;10.43;;;9.43;;
9304;SDS011;4690;52.422;13.486;2023-04-23T08:21:36;9.63;;;8.80;;
9304;SDS011;4690;52.422;13.486;2023-04-23T08:24:02;10.80;;;9.80;;
9304;SDS011;4690;52.422;13.486;2023-04-23T08:26:29;9.23;;;8.43;;
9304;SDS011;4690;52.422;13.486;2023-04-23T08:28:55;9.67;;;8.77;;
9304;SDS011;4690;52.422;13.486;2023-04-23T08:31:21;9.80;;;8.90;;
9304;SDS011;4690;52.422;13.486;2023-04-23T08:33:47;11.33;;;9.47;;
9304;SDS011;4690;52.422;13.486;2023-04-23T08:36:13;10.13;;;8.57;;
9304;SDS011;4690;52.422;13.486;2023-04-23T08:38:39;9.20;;;8.37;;
9304;SDS011;4690;52.422;13.486;2023-04-23T08:41:05;8.80;;;8.00;;
9304;SDS011;4690;52.422;13.486;2023-04-23T08:43:40;9.43;;;8.53;;
9304;SDS011;4690;52.422;13.486;2023-04-23T08:46:15;10.50;;;9.40;;
9304;SDS011;4690;52.422;13.486;2023-04-23T08:48:44;9.10;;;8.20;;
9304;SDS011;4690;52.422;13.486;2023-04-23T08:51:12;13.83;;;8.77;;
9304;SDS011;4690;52.422;13.486;2023-04-23T08:53:43;8.63;;;7.83;;
9304;SDS011;4690;52.422;13.486;2023-04-23T08:56:17;8.63;;;7.73;;
9304;SDS011;4690;52.422;13.486;2023-04-23T08:58:45;11.07;;;7.40;;
9304;SDS011;4690;52.422;13.486;2023-04-23T09:01:14;7.97;;;7.27;;
9304;SDS011;4690;52.422;13.486;2023-04-23T09:03:41;9.87;;;7.00;;
9304;SDS011;4690;52.422;13.486;2023-04-23T09:06:08;8.83;;;7.53;;
9304;SDS011;4690;52.422;13.486;2023-04-23T09:08:34;8.83;;;7.47;;
9304;SDS011;4690;52.422;13.486;2023-04-23T09:11:00;8.17;;;7.43;;
9304;SDS011;4690;52.422;13.486;2023-04-23T09:13:27;9.20;;;7.27;;
9304;SDS011;4690;52.422;13.486;2023-04-23T09:15:56;8.67;;;7.77;;
9304;SDS011;4690;52.422;13.486;2023-04-23T09:18:21;9.13;;;8.17;;
9304;SDS011;4690;52.422;13.486;2023-04-23T09:20:50;8.88;;;7.97;;
9304;SDS011;4690;52.422;13.486;2023-04-23T09:23:17;10.87;;;8.17;;
9304;SDS011;4690;52.422;13.486;2023-04-23T09:25:47;8.50;;;7.72;;
9304;SDS011;4690;52.422;13.486;2023-04-23T09:28:12;8.50;;;7.70;;
9304;SDS011;4690;52.422;13.486;2023-04-23T09:30:42;8.70;;;7.80;;
9304;SDS011;4690;52.422;13.486;2023-04-23T09:33:10;7.87;;;7.00;;
9304;SDS011;4690;52.422;13.486;2023-04-23T09:35:36;8.83;;;7.33;;
9304;SDS011;4690;52.422;13.486;2023-04-23T09:38:03;10.10;;;7.23;;
9304;SDS011;4690;52.422;13.486;2023-04-23T09:40:32;7.70;;;7.07;;
9304;SDS011;4690;52.422;13.486;2023-04-23T09:42:58;7.83;;;7.10;;
9304;SDS011;4690;52.422;13.486;2023-04-23T09:45:28;8.00;;;6.57;;
9304;SDS011;4690;52.422;13.486;2023-04-23T09:47:55;7.33;;;6.73;;
9304;SDS011;4690;52.422;13.486;2023-04-23T09:50:35;7.63;;;6.83;;
9304;SDS011;4690;52.422;13.486;2023-04-23T09:53:05;7.43;;;6.83;;
9304;SDS011;4690;52.422;13.486;2023-04-23T09:55:34;6.37;;;5.77;;
9304;SDS011;4690;52.422;13.486;2023-04-23T09:58:11;8.27;;;6.63;;
9304;SDS011;4690;52.422;13.486;2023-04-23T10:00:39;6.50;;;5.83;;
9304;SDS011;4690;52.422;13.486;2023-04-23T10:03:06;6.30;;;5.70;;
9304;SDS011;4690;52.422;13.486;2023-04-23T10:05:40;6.00;;;5.40;;
9304;SDS011;4690;52.422;13.486;2023-04-23T10:08:07;6.17;;;5.57;;
9304;SDS011;4690;52.422;13.486;2023-04-23T10:10:34;5.70;;;5.20;;
9304;SDS011;4690;52.422;13.486;2023-04-23T10:13:00;5.80;;;5.30;;
9304;SDS011;4690;52.422;13.486;2023-04-23T10:15:27;5.73;;;5.20;;
9304;SDS011;4690;52.422;13.486;2023-04-23T10:17:53;5.50;;;5.00;;
9304;SDS011;4690;52.422;13.486;2023-04-23T10:20:20;5.43;;;5.03;;
9304;SDS011;4690;52.422;13.486;2023-04-23T10:22:47;5.40;;;4.93;;
9304;SDS011;4690;52.422;13.486;2023-04-23T10:25:14;5.43;;;5.03;;
9304;SDS011;4690;52.422;13.486;2023-04-23T10:27:44;7.00;;;5.47;;
9304;SDS011;4690;52.422;13.486;2023-04-23T10:30:13;5.13;;;4.70;;
9304;SDS011;4690;52.422;13.486;2023-04-23T10:32:39;5.63;;;5.13;;
9304;SDS011;4690;52.422;13.486;2023-04-23T10:35:06;4.97;;;4.57;;
9304;SDS011;4690;52.422;13.486;2023-04-23T10:37:34;4.80;;;4.40;;
9304;SDS011;4690;52.422;13.486;2023-04-23T10:40:07;4.10;;;3.80;;
9304;SDS011;4690;52.422;13.486;2023-04-23T10:42:38;4.30;;;4.00;;
9304;SDS011;4690;52.422;13.486;2023-04-23T10:45:10;4.17;;;3.80;;
9304;SDS011;4690;52.422;13.486;2023-04-23T10:47:44;3.93;;;3.63;;
9304;SDS011;4690;52.422;13.486;2023-04-23T10:50:25;5.03;;;4.60;;
9304;SDS011;4690;52.422;13.486;2023-04-23T10:52:53;5.00;;;4.60;;
9304;SDS011;4690;52.422;13.486;2023-04-23T10:55:22;5.07;;;4.40;;
9304;SDS011;4690;52.422;13.486;2023-04-23T10:58:06;6.37;;;4.47;;
9304;SDS011;4690;52.422;13.486;2023-04-23T11:03:26;4.15;;;3.70;;
9304;SDS011;4690;52.422;13.486;2023-04-23T11:06:01;4.15;;;3.80;;
9304;SDS011;4690;52.422;13.486;2023-04-23T11:08:28;4.10;;;3.80;;
9304;SDS011;4690;52.422;13.486;2023-04-23T11:10:58;3.92;;;3.63;;
9304;SDS011;4690;52.422;13.486;2023-04-23T11:13:27;5.03;;;4.50;;
9304;SDS011;4690;52.422;13.486;2023-04-23T11:16:13;7.30;;;6.70;;
9304;SDS011;4690;52.422;13.486;2023-04-23T11:18:55;9.68;;;8.77;;
9304;SDS011;4690;52.422;13.486;2023-04-23T11:24:39;8.57;;;7.77;;
9304;SDS011;4690;52.422;13.486;2023-04-23T11:29:42;11.13;;;10.13;;
9304;SDS011;4690;52.422;13.486;2023-04-23T11:32:11;10.77;;;9.80;;
9304;SDS011;4690;52.422;13.486;2023-04-23T11:34:40;9.00;;;8.20;;
9304;SDS011;4690;52.422;13.486;2023-04-23T11:37:09;9.60;;;8.70;;
9304;SDS011;4690;52.422;13.486;2023-04-23T11:39:37;7.97;;;7.28;;
9304;SDS011;4690;52.422;13.486;2023-04-23T11:42:14;6.93;;;6.32;;
9304;SDS011;4690;52.422;13.486;2023-04-23T11:44:44;7.97;;;7.18;;
9304;SDS011;4690;52.422;13.486;2023-04-23T11:47:11;6.60;;;6.00;;
9304;SDS011;4690;52.422;13.486;2023-04-23T11:49:41;6.97;;;6.30;;
9304;SDS011;4690;52.422;13.486;2023-04-23T11:52:08;6.65;;;6.05;;
9304;SDS011;4690;52.422;13.486;2023-04-23T11:54:38;6.35;;;5.75;;
9304;SDS011;4690;52.422;13.486;2023-04-23T11:57:06;5.63;;;5.10;;
9304;SDS011;4690;52.422;13.486;2023-04-23T11:59:32;6.53;;;5.32;;
9304;SDS011;4690;52.422;13.486;2023-04-23T12:01:58;5.80;;;5.30;;
9304;SDS011;4690;52.422;13.486;2023-04-23T12:04:28;5.30;;;4.60;;
9304;SDS011;4690;52.422;13.486;2023-04-23T12:06:55;5.30;;;4.90;;
9304;SDS011;4690;52.422;13.486;2023-04-23T12:09:23;4.65;;;4.25;;
9304;SDS011;4690;52.422;13.486;2023-04-23T12:11:51;4.57;;;4.18;;
9304;SDS011;4690;52.422;13.486;2023-04-23T12:14:18;4.00;;;3.70;;
9304;SDS011;4690;52.422;13.486;2023-04-23T12:16:52;4.47;;;4.07;;
9304;SDS011;4690;52.422;13.486;2023-04-23T12:19:19;4.10;;;3.67;;
9304;SDS011;4690;52.422;13.486;2023-04-23T12:21:55;4.10;;;3.72;;
9304;SDS011;4690;52.422;13.486;2023-04-23T12:24:26;4.20;;;3.70;;
9304;SDS011;4690;52.422;13.486;2023-04-23T12:27:12;3.30;;;2.92;;
9304;SDS011;4690;52.422;13.486;2023-04-23T12:29:45;3.05;;;2.85;;
9304;SDS011;4690;52.422;13.486;2023-04-23T12:32:15;2.83;;;2.60;;
9304;SDS011;4690;52.422;13.486;2023-04-23T12:34:55;2.88;;;2.67;;
9304;SDS011;4690;52.422;13.486;2023-04-23T12:37:28;3.22;;;3.00;;
9304;SDS011;4690;52.422;13.486;2023-04-23T12:39:55;3.20;;;3.00;;
9304;SDS011;4690;52.422;13.486;2023-04-23T12:42:23;3.80;;;3.40;;
9304;SDS011;4690;52.422;13.486;2023-04-23T12:44:50;3.45;;;3.25;;
9304;SDS011;4690;52.422;13.486;2023-04-23T12:47:16;3.25;;;2.95;;
9304;SDS011;4690;52.422;13.486;2023-04-23T12:49:45;5.40;;;3.30;;
9304;SDS011;4690;52.422;13.486;2023-04-23T12:52:16;3.85;;;3.55;;
9304;SDS011;4690;52.422;13.486;2023-04-23T12:54:42;3.28;;;3.00;;
9304;SDS011;4690;52.422;13.486;2023-04-23T12:57:15;3.70;;;3.40;;
9304;SDS011;4690;52.422;13.486;2023-04-23T12:59:45;3.30;;;3.05;;
9304;SDS011;4690;52.422;13.486;2023-04-23T13:02:11;2.95;;;2.72;;
9304;SDS011;4690;52.422;13.486;2023-04-23T13:04:38;3.05;;;2.53;;
9304;SDS011;4690;52.422;13.486;2023-04-23T13:07:04;2.40;;;2.20;;
9304;SDS011;4690;52.422;13.486;2023-04-23T13:09:30;2.70;;;2.50;;
9304;SDS011;4690;52.422;13.486;2023-04-23T13:11:56;3.25;;;2.50;;
9304;SDS011;4690;52.422;13.486;2023-04-23T13:14:23;2.60;;;2.40;;
9304;SDS011;4690;52.422;13.486;2023-04-23T13:16:50;2.85;;;2.63;;
9304;SDS011;4690;52.422;13.486;2023-04-23T13:19:16;2.25;;;2.05;;
9304;SDS011;4690;52.422;13.486;2023-04-23T13:21:42;2.75;;;2.00;;
9304;SDS011;4690;52.422;13.486;2023-04-23T13:24:08;2.10;;;1.90;;
9304;SDS011;4690;52.422;13.486;2023-04-23T13:26:34;3.65;;;2.08;;
9304;SDS011;4690;52.422;13.486;2023-04-23T13:29:01;2.97;;;2.40;;
9304;SDS011;4690;52.422;13.486;2023-04-23T13:31:27;2.67;;;2.22;;
9304;SDS011;4690;52.422;13.486;2023-04-23T13:33:55;2.30;;;2.10;;
9304;SDS011;4690;52.422;13.486;2023-04-23T13:36:21;3.13;;;2.28;;
9304;SDS011;4690;52.422;13.486;2023-04-23T13:38:48;2.05;;;1.95;;
9304;SDS011;4690;52.422;13.486;2023-04-23T13:41:14;2.78;;;2.42;;
9304;SDS011;4690;52.422;13.486;2023-04-23T13:43:40;2.90;;;2.60;;
9304;SDS011;4690;52.422;13.486;2023-04-23T13:46:06;3.05;;;2.83;;
9304;SDS011;4690;52.422;13.486;2023-04-23T13:48:32;3.08;;;2.58;;
9304;SDS011;4690;52.422;13.486;2023-04-23T13:50:58;4.10;;;2.50;;
9304;SDS011;4690;52.422;13.486;2023-04-23T13:53:26;2.45;;;2.22;;
9304;SDS011;4690;52.422;13.486;2023-04-23T13:55:55;2.88;;;2.67;;
9304;SDS011;4690;52.422;13.486;2023-04-23T13:58:23;2.72;;;2.53;;
9304;SDS011;4690;52.422;13.486;2023-04-23T14:00:50;3.50;;;2.80;;
9304;SDS011;4690;52.422;13.486;2023-04-23T14:03:16;3.00;;;2.78;;
9304;SDS011;4690;52.422;13.486;2023-04-23T14:05:44;3.35;;;3.05;;
9304;SDS011;4690;52.422;13.486;2023-04-23T14:08:10;3.85;;;3.28;;
9304;SDS011;4690;52.422;13.486;2023-04-23T14:10:37;3.00;;;2.80;;
9304;SDS011;4690;52.422;13.486;2023-04-23T14:13:03;3.70;;;2.90;;
9304;SDS011;4690;52.422;13.486;2023-04-23T14:15:29;3.22;;;2.92;;
9304;SDS011;4690;52.422;13.486;2023-04-23T14:17:55;3.03;;;2.70;;
9304;SDS011;4690;52.422;13.486;2023-04-23T14:20:20;2.65;;;2.45;;
9304;SDS011;4690;52.422;13.486;2023-04-23T14:22:50;2.92;;;2.72;;
9304;SDS011;4690;52.422;13.486;2023-04-23T14:25:34;3.10;;;2.90;;
9304;SDS011;4690;52.422;13.486;2023-04-23T14:30:58;3.42;;;3.13;;
9304;SDS011;4690;52.422;13.486;2023-04-23T14:33:26;4.75;;;3.28;;
9304;SDS011;4690;52.422;13.486;2023-04-23T14:35:51;3.03;;;2.83;;
9304;SDS011;4690;52.422;13.486;2023-04-23T14:38:17;3.10;;;2.78;;
9304;SDS011;4690;52.422;13.486;2023-04-23T14:40:43;3.78;;;3.13;;
9304;SDS011;4690;52.422;13.486;2023-04-23T14:43:09;3.40;;;3.10;;
9304;SDS011;4690;52.422;13.486;2023-04-23T14:45:35;3.05;;;2.80;;
9304;SDS011;4690;52.422;13.486;2023-04-23T14:48:01;4.25;;;2.90;;
9304;SDS011;4690;52.422;13.486;2023-04-23T14:50:26;3.20;;;2.90;;
9304;SDS011;4690;52.422;13.486;2023-04-23T14:52:52;2.92;;;2.72;;
9304;SDS011;4690;52.422;13.486;2023-04-23T14:55:20;3.28;;;2.60;;
9304;SDS011;4690;52.422;13.486;2023-04-23T14:57:46;2.90;;;2.70;;
9304;SDS011;4690;52.422;13.486;2023-04-23T15:00:12;3.00;;;2.80;;
9304;SDS011;4690;52.422;13.486;2023-04-23T15:02:39;3.67;;;2.97;;
9304;SDS011;4690;52.422;13.486;2023-04-23T15:05:07;3.03;;;2.75;;
9304;SDS011;4690;52.422;13.486;2023-04-23T15:07:36;3.85;;;2.80;;